Time;durP1;ratioP1;P1;durP2;ratioP2;P2;SDS_P1;SDS_P2;PMS_P1;PMS_P2;Temp;Humidity;BMP_temperature;BMP_pressure;BME280_temperature;BME280_humidity;BME280_pressure;Samples;Min_cycle;Max_cycle;Signal;HPM_P1;HPM_P2
2020/12/07 00:06:00;;;;;;;16.50;8.63;;;;;;;0.99;100.00;98377.75;4352927;81;28616;-72
2020/12/07 00:12:02;;;;;;;15.80;8.43;;;;;;;0.94;100.00;98378.30;4324888;81;43966;-72
2020/12/07 00:18:04;;;;;;;15.38;7.80;;;;;;;0.83;100.00;98368.98;4370104;80;28540;-72
2020/12/07 00:24:06;;;;;;;16.02;7.97;;;;;;;0.86;100.00;98364.33;4369695;81;28564;-73
2020/12/07 00:30:09;;;;;;;17.95;8.83;;;;;;;0.83;100.00;98355.75;4329993;81;44103;-72
2020/12/07 00:36:11;;;;;;;12.35;7.05;;;;;;;0.80;100.00;98353.48;4362622;81;28582;-72
2020/12/07 00:42:13;;;;;;;15.90;8.35;;;;;;;0.82;100.00;98362.06;4356465;81;28569;-72
2020/12/07 00:48:15;;;;;;;12.53;6.65;;;;;;;0.79;100.00;98355.82;4368898;80;43672;-72
2020/12/07 00:54:17;;;;;;;15.70;7.85;;;;;;;0.72;100.00;98342.16;4366652;80;28547;-72
2020/12/07 01:00:19;;;;;;;15.23;7.67;;;;;;;0.73;100.00;98336.70;4335699;81;43948;-71
2020/12/07 01:06:31;;;;;;;12.95;6.70;;;;;;;0.69;100.00;98340.21;4351943;81;43927;-71
2020/12/07 01:12:34;;;;;;;15.83;6.90;;;;;;;0.68;100.00;98325.34;4349270;81;43909;-71
2020/12/07 01:18:37;;;;;;;10.85;5.65;;;;;;;0.71;100.00;98311.42;4330812;81;43252;-72
2020/12/07 01:24:39;;;;;;;14.28;7.30;;;;;;;0.70;100.00;98314.59;4369148;81;43907;-72
2020/12/07 01:30:43;;;;;;;16.07;7.78;;;;;;;0.68;100.00;98310.80;4364356;81;44016;-73
2020/12/07 01:36:47;;;;;;;15.80;7.80;;;;;;;0.66;100.00;98308.00;4339607;81;28670;-73
2020/12/07 01:42:49;;;;;;;15.83;7.05;;;;;;;0.60;100.00;98288.40;4332998;80;28556;-72
2020/12/07 01:48:53;;;;;;;11.80;6.72;;;;;;;0.59;100.00;98295.22;4314900;81;43326;-72
2020/12/07 01:54:57;;;;;;;15.98;8.45;;;;;;;0.57;100.00;98304.66;4348288;81;28536;-72
2020/12/07 02:01:03;;;;;;;14.40;7.10;;;;;;;0.55;100.00;98296.09;4367796;81;43903;-72
2020/12/07 02:07:05;;;;;;;15.08;8.48;;;;;;;0.53;100.00;98296.26;4368812;80;28970;-73
2020/12/07 02:13:10;;;;;;;14.70;7.55;;;;;;;0.52;100.00;98306.53;4367125;80;43950;-71
2020/12/07 02:19:12;;;;;;;13.28;7.22;;;;;;;0.48;100.00;98292.04;4336788;80;43954;-72
2020/12/07 02:25:21;;;;;;;12.88;6.83;;;;;;;0.51;100.00;98300.08;4360137;81;43922;-72
2020/12/07 02:31:23;;;;;;;12.28;7.20;;;;;;;0.52;100.00;98281.39;4335989;80;44052;-72
2020/12/07 02:37:27;;;;;;;12.82;7.15;;;;;;;0.46;100.00;98274.70;4370512;80;43992;-72
2020/12/07 02:43:30;;;;;;;16.67;8.75;;;;;;;0.40;100.00;98269.13;4368771;81;43939;-71
2020/12/07 02:49:34;;;;;;;14.70;7.37;;;;;;;0.44;100.00;98266.14;4358615;81;43951;-73
2020/12/07 02:55:37;;;;;;;15.58;7.85;;;;;;;0.39;100.00;98260.08;4310752;81;43902;-71
2020/12/07 03:01:39;;;;;;;14.68;8.10;;;;;;;0.35;100.00;98256.14;4363940;80;43927;-72
2020/12/07 03:07:41;;;;;;;13.90;7.08;;;;;;;0.36;100.00;98263.91;4374768;80;43910;-72
2020/12/07 03:13:44;;;;;;;15.88;8.85;;;;;;;0.41;100.00;98266.00;4358487;80;43940;-72
2020/12/07 03:19:48;;;;;;;15.13;7.75;;;;;;;0.34;100.00;98251.86;4370696;80;43962;-72
2020/12/07 03:25:50;;;;;;;15.38;8.05;;;;;;;0.27;100.00;98246.50;4377339;80;43977;-72
2020/12/07 03:31:54;;;;;;;12.53;6.80;;;;;;;0.31;100.00;98262.30;4364201;81;44024;-72
2020/12/07 03:37:57;;;;;;;12.88;6.47;;;;;;;0.34;100.00;98245.25;4356397;81;43986;-72
2020/12/07 03:44:00;;;;;;;13.98;6.85;;;;;;;0.36;100.00;98244.56;4354496;80;43935;-72
2020/12/07 03:50:04;;;;;;;13.18;5.90;;;;;;;0.39;100.00;98234.95;4360563;81;43554;-72
2020/12/07 03:56:08;;;;;;;11.85;5.75;;;;;;;0.48;100.00;98236.98;4353862;80;43215;-72
2020/12/07 04:02:11;;;;;;;13.40;6.62;;;;;;;0.47;100.00;98232.21;4353969;81;43980;-72
2020/12/07 04:08:14;;;;;;;11.03;6.10;;;;;;;0.50;100.00;98245.55;4400261;79;43313;-72
2020/12/07 04:14:18;;;;;;;12.28;6.70;;;;;;;0.55;100.00;98237.37;4367079;81;43265;-72
2020/12/07 04:20:20;;;;;;;11.70;5.95;;;;;;;0.58;100.00;98231.41;4369675;81;43252;-71
2020/12/07 04:26:22;;;;;;;11.68;5.97;;;;;;;0.59;100.00;98227.23;4370063;81;43268;-73
2020/12/07 04:32:24;;;;;;;10.85;6.40;;;;;;;0.68;100.00;98229.29;4347467;81;43239;-71
2020/12/07 04:38:26;;;;;;;10.38;5.42;;;;;;;0.74;100.00;98237.78;4360090;80;28630;-71
2020/12/07 04:44:29;;;;;;;8.88;5.15;;;;;;;0.74;100.00;98242.27;4370241;81;28644;-71
2020/12/07 04:50:33;;;;;;;9.23;4.87;;;;;;;0.82;100.00;98244.29;4369746;81;28554;-71
2020/12/07 04:56:37;;;;;;;9.55;5.42;;;;;;;0.88;100.00;98234.77;4357583;81;42814;-72
2020/12/07 05:02:39;;;;;;;10.08;5.33;;;;;;;0.87;100.00;98231.81;4359073;80;43213;-72
2020/12/07 05:08:41;;;;;;;10.93;5.47;;;;;;;0.97;100.00;98219.09;4368560;80;28551;-72
2020/12/07 05:14:44;;;;;;;10.95;5.25;;;;;;;1.01;100.00;98221.35;4368670;81;28599;-72
2020/12/07 05:20:48;;;;;;;11.00;5.75;;;;;;;1.01;100.00;98217.37;4367885;81;43276;-72
2020/12/07 05:26:52;;;;;;;10.53;6.20;;;;;;;0.99;100.00;98218.91;4365362;80;28598;-73
2020/12/07 05:32:54;;;;;;;10.45;5.47;;;;;;;0.97;100.00;98220.91;4346389;81;28590;-72
2020/12/07 05:38:56;;;;;;;11.20;5.80;;;;;;;0.94;100.00;98212.03;4364736;81;43258;-72
2020/12/07 05:45:00;;;;;;;10.58;5.85;;;;;;;0.88;100.00;98221.55;4328837;81;28599;-73
2020/12/07 05:51:05;;;;;;;11.22;5.87;;;;;;;0.83;100.00;98230.05;4367897;81;28548;-72
2020/12/07 05:57:11;;;;;;;10.40;5.58;;;;;;;0.74;100.00;98223.23;4350947;80;28603;-73
2020/12/07 06:03:17;;;;;;;11.22;5.17;;;;;;;0.72;100.00;98223.09;4367230;80;28654;-72
2020/12/07 06:09:23;;;;;;;11.73;6.05;;;;;;;0.68;100.00;98222.67;4380406;80;28601;-73
2020/12/07 06:15:31;;;;;;;11.60;6.12;;;;;;;0.65;100.00;98233.61;4316135;81;28615;-73
2020/12/07 06:21:34;;;;;;;12.25;6.37;;;;;;;0.67;100.00;98238.20;4393569;80;43236;-72
2020/12/07 06:27:36;;;;;;;11.10;5.65;;;;;;;0.66;100.00;98241.86;4288149;81;43273;-71
2020/12/07 06:33:42;;;;;;;9.78;5.15;;;;;;;0.65;100.00;98242.38;4356750;81;28560;-72
2020/12/07 06:39:47;;;;;;;;;;;;;;;0.66;100.00;98254.59;4362714;82;28625;-72
2020/12/07 06:45:49;;;;;;;12.18;6.37;;;;;;;0.69;100.00;98264.00;4353066;81;43210;-72
2020/12/07 06:52:04;;;;;;;11.88;5.85;;;;;;;0.69;100.00;98271.41;4351914;82;43214;-72
2020/12/07 06:58:03;;;;;;;12.43;6.50;;;;;;;0.75;100.00;98265.88;4339040;82;43209;-73
2020/12/07 07:04:05;;;;;;;10.85;5.72;;;;;;;0.79;100.00;98279.08;4388744;80;28550;-73
2020/12/07 07:10:10;;;;;;;13.13;6.80;;;;;;;0.81;100.00;98281.52;4367052;80;28546;-73
2020/12/07 07:16:13;;;;;;;11.38;5.87;;;;;;;0.76;100.00;98286.56;4313927;81;28651;-76
2020/12/07 07:22:15;;;;;;;12.58;6.92;;;;;;;0.78;100.00;98306.55;4395290;80;28612;-71
2020/12/07 07:28:18;;;;;;;13.40;6.90;;;;;;;0.76;100.00;98305.89;4349707;81;43947;-73
2020/12/07 07:34:20;;;;;;;13.53;6.87;;;;;;;0.80;100.00;98303.20;4365826;80;28596;-72
2020/12/07 07:40:26;;;;;;;11.48;6.30;;;;;;;0.87;100.00;98302.44;4392660;80;43231;-72
2020/12/07 07:46:32;;;;;;;20.77;9.25;;;;;;;0.94;100.00;98317.91;4364285;80;28550;-76
2020/12/07 08:17:54;;;;;;;13.50;6.92;;;;;;;1.57;100.00;98350.42;4370559;81;28594;-72
2020/12/07 08:24:05;;;;;;;13.32;6.62;;;;;;;1.79;100.00;98355.71;4365620;81;28601;-73
2020/12/07 08:30:07;;;;;;;12.47;6.70;;;;;;;1.69;100.00;98360.52;4359019;81;28586;-73
2020/12/07 08:36:09;;;;;;;13.22;6.87;;;;;;;1.85;100.00;98354.96;4357116;81;28571;-71
2020/12/07 08:42:12;;;;;;;12.28;6.45;;;;;;;1.97;100.00;98359.22;4359110;81;43232;-71
2020/12/07 08:48:14;;;;;;;13.00;7.42;;;;;;;1.84;100.00;98357.80;4370364;81;28611;-73
2020/12/07 08:54:16;;;;;;;15.15;7.62;;;;;;;1.85;100.00;98347.01;4371536;80;28612;-72
2020/12/07 09:00:18;;;;;;;13.30;7.05;;;;;;;1.82;100.00;98348.70;4368297;81;28578;-74
2020/12/07 09:06:21;;;;;;;15.55;7.47;;;;;;;1.81;100.00;98332.48;4362240;81;43895;-74
2020/12/07 09:12:23;;;;;;;14.15;7.35;;;;;;;1.99;100.00;98345.78;4349787;80;28602;-73
2020/12/07 09:18:27;;;;;;;16.05;7.47;;;;;;;2.02;100.00;98337.43;4367388;81;28553;-73
2020/12/07 09:24:29;;;;;;;15.40;6.97;;;;;;;2.12;100.00;98331.28;4350861;81;28625;-74
2020/12/07 09:30:32;;;;;;;13.70;7.12;;;;;;;2.09;100.00;98340.95;4351451;80;28562;-73
2020/12/07 09:36:34;;;;;;;13.13;7.65;;;;;;;2.20;100.00;98341.75;4355949;81;28609;-74
2020/12/07 09:42:39;;;;;;;14.68;8.10;;;;;;;2.21;100.00;98339.92;4339948;80;28590;-74
2020/12/07 09:48:41;;;;;;;15.28;7.78;;;;;;;2.22;100.00;98345.55;4332330;81;28657;-73
2020/12/07 09:54:43;;;;;;;12.60;6.72;;;;;;;2.29;100.00;98338.45;4361295;80;29014;-74
2020/12/07 10:00:46;;;;;;;13.88;8.00;;;;;;;2.53;100.00;98335.50;4353100;80;28603;-73
2020/12/07 10:06:48;;;;;;;14.00;7.65;;;;;;;2.53;100.00;98322.23;4354354;80;28555;-74
2020/12/07 10:12:50;;;;;;;15.75;8.20;;;;;;;2.67;100.00;98329.27;4346660;80;28565;-77
2020/12/07 10:18:52;;;;;;;14.43;7.53;;;;;;;2.84;100.00;98328.41;4348039;80;28749;-76
2020/12/07 10:24:55;;;;;;;15.93;8.38;;;;;;;3.05;100.00;98318.68;4356847;81;28571;-76
2020/12/07 10:30:57;;;;;;;14.93;7.90;;;;;;;3.30;100.00;98327.41;4365609;81;28546;-75
2020/12/07 10:37:00;;;;;;;14.38;8.13;;;;;;;3.48;100.00;98337.45;4330356;80;28560;-75
2020/12/07 10:43:02;;;;;;;12.68;6.70;;;;;;;3.53;100.00;98323.56;4350113;81;28551;-76
2020/12/07 10:49:07;;;;;;;14.83;6.95;;;;;;;3.75;100.00;98338.33;4365216;80;28619;-75
2020/12/07 10:55:09;;;;;;;16.07;9.10;;;;;;;3.82;100.00;98333.00;4353527;80;28664;-76
2020/12/07 11:01:11;;;;;;;14.50;7.55;;;;;;;3.98;100.00;98327.78;4361526;80;28590;-76
2020/12/07 11:07:17;;;;;;;14.85;7.33;;;;;;;4.03;100.00;98333.81;4367242;80;28623;-81
2020/12/07 11:19:32;;;;;;;17.23;8.10;;;;;;;4.50;100.00;98313.77;4484040;77;74111;-75
2020/12/07 11:25:34;;;;;;;15.03;7.17;;;;;;;4.57;100.00;98329.19;4424341;78;28546;-75
2020/12/07 11:31:37;;;;;;;15.78;8.15;;;;;;;4.72;100.00;98320.95;4438974;79;28576;-75
2020/12/07 11:37:40;;;;;;;19.25;8.38;;;;;;;4.91;100.00;98306.44;4401188;78;28643;-75
2020/12/07 11:49:58;;;;;;;16.93;8.70;;;;;;;4.88;100.00;98309.53;4377633;79;84981;-75
2020/12/07 11:56:00;;;;;;;18.32;8.85;;;;;;;5.05;100.00;98309.03;4313163;80;28585;-74
2020/12/07 12:02:05;;;;;;;16.65;8.08;;;;;;;5.05;100.00;98298.38;4308552;81;28567;-77
2020/12/07 12:08:07;;;;;;;15.32;8.15;;;;;;;5.05;100.00;98297.03;4316745;80;28661;-77
2020/12/07 12:14:11;;;;;;;17.62;9.08;;;;;;;5.01;100.00;98304.66;4311770;81;28580;-80
2020/12/07 12:20:14;;;;;;;17.77;8.93;;;;;;;5.08;100.00;98293.97;4311849;80;28600;-79
2020/12/07 12:26:19;;;;;;;16.80;8.95;;;;;;;5.06;100.00;98297.37;4306319;80;28596;-78
2020/12/07 12:32:22;;;;;;;19.75;9.78;;;;;;;5.14;100.00;98290.42;4304343;80;28544;-77
2020/12/07 12:38:24;;;;;;;21.87;10.88;;;;;;;5.08;100.00;98278.78;4316101;81;28633;-79
2020/12/07 12:44:26;;;;;;;21.00;10.50;;;;;;;5.03;100.00;98299.94;4315255;80;28598;-79
2020/12/07 12:50:28;;;;;;;19.60;10.10;;;;;;;4.97;100.00;98303.44;4301987;81;28559;-77
2020/12/07 12:56:31;;;;;;;23.42;11.03;;;;;;;4.80;100.00;98315.92;4321211;80;28593;-77
2020/12/07 13:02:33;;;;;;;17.50;8.58;;;;;;;4.63;100.00;98307.56;4320391;80;28581;-77
2020/12/07 13:08:35;;;;;;;23.32;10.55;;;;;;;4.57;100.00;98305.77;4307906;82;28576;-78
2020/12/07 13:14:37;;;;;;;23.87;11.33;;;;;;;4.68;100.00;98314.42;4296466;82;28556;-76
2020/12/07 13:20:43;;;;;;;21.97;9.93;;;;;;;4.54;100.00;98327.48;4310321;82;28564;-76
2020/12/07 13:26:55;;;;;;;17.92;8.78;;;;;;;4.50;100.00;98324.42;4325835;80;28664;-75
2020/12/07 13:32:50;;;;;;;22.60;10.18;;;;;;;4.50;100.00;98351.05;4328361;80;28608;-76
2020/12/07 13:38:52;;;;;;;22.32;10.55;;;;;;;4.28;100.00;98349.13;4297831;80;28642;-76
2020/12/07 13:44:54;;;;;;;20.10;9.63;;;;;;;4.17;100.00;98355.38;4309972;80;28578;-75
2020/12/07 13:50:56;;;;;;;20.70;9.70;;;;;;;4.14;100.00;98346.49;4316278;81;28543;-76
2020/12/07 13:56:58;;;;;;;23.02;10.32;;;;;;;4.01;100.00;98326.53;4330349;81;28586;-76
2020/12/07 14:03:01;;;;;;;18.98;9.58;;;;;;;3.90;100.00;98339.95;4334787;80;28552;-75
2020/12/07 14:09:07;;;;;;;20.57;10.05;;;;;;;3.81;100.00;98331.37;4315449;80;28649;-73
2020/12/07 14:15:07;;;;;;;17.48;8.58;;;;;;;3.75;100.00;98340.98;4315814;81;28573;-72
2020/12/07 14:40:04;;;;;;;17.42;9.68;;;;;;;3.56;100.00;98366.51;4409847;80;28634;-74
2020/12/07 14:52:11;;;;;;;22.73;9.88;;;;;;;3.49;100.00;98361.71;4588920;76;84958;-76
2020/12/07 15:16:47;;;;;;;23.75;11.85;;;;;;;3.26;100.00;98397.40;4478417;78;28561;-79
2020/12/07 15:22:49;;;;;;;21.93;10.93;;;;;;;3.02;100.00;98382.80;4495309;78;28566;-79
2020/12/07 15:28:51;;;;;;;23.50;11.45;;;;;;;2.98;100.00;98385.55;4434392;78;28641;-77
2020/12/07 15:34:53;;;;;;;25.50;11.48;;;;;;;2.94;100.00;98378.48;4489200;78;28592;-76
2020/12/07 15:40:55;;;;;;;27.42;12.47;;;;;;;2.90;100.00;98390.53;4481933;78;28555;-77
2020/12/07 15:46:58;;;;;;;23.92;11.05;;;;;;;2.86;100.00;98401.21;4499725;77;28565;-77
2020/12/07 15:53:00;;;;;;;26.07;12.53;;;;;;;2.75;100.00;98393.31;4502472;78;28596;-74
2020/12/07 15:59:03;;;;;;;24.47;12.20;;;;;;;2.61;100.00;98388.43;4512507;78;28576;-75
2020/12/07 16:05:05;;;;;;;30.30;13.53;;;;;;;2.64;100.00;98394.66;4489179;78;28543;-74
2020/12/07 16:11:07;;;;;;;28.70;12.55;;;;;;;2.60;100.00;98398.25;4506157;78;28538;-75
2020/12/07 16:17:09;;;;;;;27.07;12.33;;;;;;;2.49;100.00;98388.14;4497961;78;28573;-75
2020/12/07 16:23:11;;;;;;;26.33;13.25;;;;;;;2.55;100.00;98385.22;4483332;78;28604;-75
2020/12/07 16:29:13;;;;;;;30.10;13.88;;;;;;;2.49;100.00;98380.19;4481557;78;28567;-76
2020/12/07 16:35:15;;;;;;;31.30;14.13;;;;;;;2.47;100.00;98376.42;4498393;78;28602;-78
2020/12/07 16:41:17;;;;;;;29.40;14.18;;;;;;;2.43;100.00;98373.02;4502657;78;28543;-74
2020/12/07 16:47:19;;;;;;;29.55;13.98;;;;;;;2.36;100.00;98376.44;4470008;78;28660;-75
2020/12/07 16:53:21;;;;;;;29.75;13.78;;;;;;;2.20;100.00;98371.45;4505422;79;28578;-75
2020/12/07 16:59:24;;;;;;;33.15;15.43;;;;;;;2.22;100.00;98387.45;4505533;78;28535;-75
2020/12/07 17:05:26;;;;;;;29.92;13.65;;;;;;;2.07;100.00;98390.20;4509526;78;28537;-76
2020/12/07 17:11:28;;;;;;;28.27;14.55;;;;;;;2.18;100.00;98393.34;4503856;78;28546;-75
2020/12/07 17:17:33;;;;;;;31.93;14.73;;;;;;;2.06;100.00;98385.91;4480749;78;28655;-76
2020/12/07 17:23:35;;;;;;;27.60;13.32;;;;;;;2.08;100.00;98380.42;4492776;78;28586;-74
2020/12/07 17:29:38;;;;;;;29.57;13.80;;;;;;;2.16;100.00;98400.67;4498552;78;28630;-75
2020/12/07 17:35:41;;;;;;;32.48;16.07;;;;;;;2.16;100.00;98403.33;4485142;78;44085;-76
2020/12/07 17:41:43;;;;;;;32.85;15.45;;;;;;;2.02;100.00;98391.78;4493026;78;28534;-75
2020/12/07 17:47:48;;;;;;;30.70;14.45;;;;;;;1.72;100.00;98406.02;4491193;78;28633;-75
2020/12/07 17:53:51;;;;;;;34.73;16.43;;;;;;;1.78;100.00;98405.27;4481087;79;28626;-75
2020/12/07 17:59:54;;;;;;;29.92;14.35;;;;;;;1.63;100.00;98412.45;4487967;78;50981;-74
2020/12/07 18:05:56;;;;;;;40.55;17.73;;;;;;;1.59;100.00;98412.52;4472306;78;28631;-74
2020/12/07 18:12:04;;;;;;;35.43;15.45;;;;;;;1.49;100.00;98428.70;4493383;78;44259;-75
2020/12/07 18:18:07;;;;;;;38.83;16.30;;;;;;;1.46;100.00;98431.73;4505846;78;44610;-75
2020/12/07 18:24:09;;;;;;;38.88;17.00;;;;;;;1.30;100.00;98436.27;4485087;78;28541;-75
2020/12/07 18:30:11;;;;;;;36.83;17.02;;;;;;;1.17;100.00;98433.44;4494071;78;28547;-76
2020/12/07 18:36:13;;;;;;;32.90;15.75;;;;;;;1.02;100.00;98431.64;4495942;77;28608;-75
2020/12/07 18:42:16;;;;;;;36.55;17.55;;;;;;;1.07;100.00;98428.44;4499119;78;28605;-73
2020/12/07 18:48:18;;;;;;;38.17;17.77;;;;;;;0.94;100.00;98439.67;4487636;78;44461;-76
2020/12/07 18:54:22;;;;;;;37.15;17.27;;;;;;;0.92;100.00;98451.75;4509066;78;28606;-75
2020/12/07 19:00:25;;;;;;;37.73;16.62;;;;;;;1.00;100.00;98446.05;4485872;78;44447;-76
2020/12/07 19:06:27;;;;;;;39.03;17.15;;;;;;;0.98;100.00;98439.61;4493874;78;28572;-74
2020/12/07 19:12:31;;;;;;;34.98;16.57;;;;;;;0.94;100.00;98450.26;4495881;78;44073;-76
2020/12/07 19:18:33;;;;;;;41.42;18.30;;;;;;;0.99;100.00;98440.45;4478979;78;44460;-74
2020/12/07 19:24:35;;;;;;;41.08;19.60;;;;;;;1.07;100.00;98439.03;4495603;78;28633;-78
2020/12/07 19:30:37;;;;;;;31.40;14.93;;;;;;;1.20;100.00;98438.37;4496994;78;44263;-76
2020/12/07 19:36:41;;;;;;;38.92;18.00;;;;;;;1.09;100.00;98444.95;4477629;78;44427;-77
2020/12/07 19:42:43;;;;;;;36.20;17.32;;;;;;;0.95;100.00;98457.19;4477058;78;28538;-85
2020/12/07 19:48:45;;;;;;;38.13;17.57;;;;;;;0.90;100.00;98457.73;4489074;78;44499;-75
2020/12/07 19:54:48;;;;;;;40.85;18.77;;;;;;;0.81;100.00;98445.59;4479548;78;28621;-76
2020/12/07 20:00:52;;;;;;;37.30;16.95;;;;;;;0.86;100.00;98441.91;4495189;78;44476;-76
2020/12/07 20:06:55;;;;;;;37.93;18.70;;;;;;;0.83;100.00;98443.58;4488335;78;44444;-75
2020/12/07 20:13:01;;;;;;;38.45;18.57;;;;;;;0.80;100.00;98454.55;4491220;78;44440;-75
2020/12/07 20:19:04;;;;;;;36.00;18.07;;;;;;;0.78;100.00;98457.88;4495711;78;28562;-75
2020/12/07 20:25:07;;;;;;;45.40;20.45;;;;;;;0.73;100.00;98473.46;4483295;77;28550;-75
2020/12/07 20:31:10;;;;;;;36.63;17.20;;;;;;;0.67;100.00;98478.48;4469723;78;28578;-75
2020/12/07 20:37:17;;;;;;;39.95;18.15;;;;;;;0.64;100.00;98481.99;4455099;78;28562;-75
2020/12/07 20:43:19;;;;;;;37.20;17.23;;;;;;;0.74;100.00;98485.72;4491867;78;28624;-76
2020/12/07 20:49:21;;;;;;;35.50;16.70;;;;;;;0.63;100.00;98484.33;4490211;79;44276;-76
2020/12/07 20:55:23;;;;;;;39.95;19.60;;;;;;;0.67;100.00;98489.08;4489769;78;44465;-75
2020/12/07 21:01:25;;;;;;;40.88;17.95;;;;;;;0.54;100.00;98491.01;4467587;78;44523;-75
2020/12/07 21:07:27;;;;;;;38.10;17.50;;;;;;;0.56;100.00;98500.09;4485541;78;44512;-75
2020/12/07 21:13:30;;;;;;;34.43;16.40;;;;;;;0.67;100.00;98500.98;4495805;78;44151;-76
2020/12/07 21:19:34;;;;;;;36.63;16.90;;;;;;;0.63;100.00;98500.20;4478312;78;44434;-77
2020/12/07 21:25:36;;;;;;;36.17;17.82;;;;;;;0.50;100.00;98510.06;4483776;78;44491;-77
2020/12/07 21:31:38;;;;;;;38.50;17.50;;;;;;;0.48;100.00;98506.78;4475338;79;44429;-76
2020/12/07 21:37:41;;;;;;;33.67;16.52;;;;;;;0.52;100.00;98514.66;4488497;78;44075;-75
2020/12/07 21:43:43;;;;;;;33.83;16.00;;;;;;;0.62;100.00;98512.59;4476777;78;28546;-77
2020/12/07 21:49:45;;;;;;;32.53;15.85;;;;;;;0.62;100.00;98514.43;4496280;78;44113;-76
2020/12/07 21:55:47;;;;;;;31.12;15.48;;;;;;;0.68;100.00;98506.59;4487384;78;44133;-73
2020/12/07 22:01:49;;;;;;;38.00;17.98;;;;;;;0.74;100.00;98507.70;4470516;79;44851;-73
2020/12/07 22:07:55;;;;;;;32.10;16.27;;;;;;;0.55;100.00;98501.10;4479483;78;28580;-73
2020/12/07 22:13:57;;;;;;;39.27;17.17;;;;;;;0.67;100.00;98507.59;4476582;78;28596;-73
2020/12/07 22:20:00;;;;;;;38.70;18.07;;;;;;;0.73;100.00;98510.02;4473119;78;44497;-73
2020/12/07 22:26:02;;;;;;;38.40;17.05;;;;;;;0.54;100.00;98505.56;4384752;80;44467;-76
2020/12/07 22:32:06;;;;;;;40.17;18.30;;;;;;;0.59;100.00;98501.57;4284684;81;44531;-72
2020/12/07 22:38:09;;;;;;;39.20;16.93;;;;;;;0.66;100.00;98506.45;4366668;80;28567;-72
2020/12/07 22:44:12;;;;;;;34.83;16.90;;;;;;;0.66;100.00;98511.73;4333098;80;44451;-74
2020/12/07 22:50:14;;;;;;;43.73;18.37;;;;;;;0.66;100.00;98507.28;4341269;81;43564;-74
2020/12/07 22:56:17;;;;;;;37.93;17.62;;;;;;;0.66;100.00;98513.06;4346465;81;44447;-74
2020/12/07 23:02:18;;;;;;;39.00;19.12;;;;;;;0.56;100.00;98510.68;4349133;81;28601;-75
2020/12/07 23:08:20;;;;;;;39.53;17.35;;;;;;;0.47;100.00;98498.52;4367445;80;44428;-74
2020/12/07 23:14:23;;;;;;;42.78;18.30;;;;;;;0.47;100.00;98503.81;4357859;80;43312;-74
2020/12/07 23:20:26;;;;;;;41.63;18.60;;;;;;;0.33;100.00;98508.06;4369730;80;43698;-75
2020/12/07 23:26:28;;;;;;;39.70;18.35;;;;;;;0.33;100.00;98508.89;4339877;80;44478;-74
2020/12/07 23:32:31;;;;;;;44.15;19.25;;;;;;;0.26;100.00;98502.17;4356413;80;43809;-73
2020/12/07 23:38:34;;;;;;;38.63;17.67;;;;;;;0.37;100.00;98508.84;4334713;80;44486;-73
2020/12/07 23:44:36;;;;;;;37.50;16.97;;;;;;;0.38;100.00;98508.36;4355241;80;44487;-73
2020/12/07 23:50:38;;;;;;;41.13;17.60;;;;;;;0.50;100.00;98512.22;4354870;80;44470;-73
2020/12/07 23:56:40;;;;;;;35.13;15.20;;;;;;;0.49;100.00;98522.48;4346272;81;44132;-73
